sensor_id;sensor_type;location;lat;lon;timestamp;temperature;humidity
37886;DHT22;23726;52.520;13.434;2022-08-19T00:00:07;29.40;51.00
37886;DHT22;23726;52.520;13.434;2022-08-19T00:02:34;29.40;50.90
37886;DHT22;23726;52.520;13.434;2022-08-19T00:05:00;29.40;50.90
37886;DHT22;23726;52.520;13.434;2022-08-19T00:07:26;29.40;50.90
37886;DHT22;23726;52.520;13.434;2022-08-19T00:09:52;29.40;50.80
37886;DHT22;23726;52.520;13.434;2022-08-19T00:12:17;29.40;50.90
37886;DHT22;23726;52.520;13.434;2022-08-19T00:14:43;29.40;50.80
37886;DHT22;23726;52.520;13.434;2022-08-19T00:17:09;29.40;50.80
37886;DHT22;23726;52.520;13.434;2022-08-19T00:19:35;29.40;50.80
37886;DHT22;23726;52.520;13.434;2022-08-19T00:22:01;29.40;50.90
37886;DHT22;23726;52.520;13.434;2022-08-19T00:24:28;29.40;50.80
37886;DHT22;23726;52.520;13.434;2022-08-19T00:26:54;29.40;50.80
37886;DHT22;23726;52.520;13.434;2022-08-19T00:29:21;29.40;50.70
37886;DHT22;23726;52.520;13.434;2022-08-19T00:31:47;29.40;50.80
37886;DHT22;23726;52.520;13.434;2022-08-19T00:34:14;29.40;50.90
37886;DHT22;23726;52.520;13.434;2022-08-19T00:36:40;29.30;50.80
37886;DHT22;23726;52.520;13.434;2022-08-19T00:39:07;29.40;50.70
37886;DHT22;23726;52.520;13.434;2022-08-19T00:41:33;29.40;50.80
37886;DHT22;23726;52.520;13.434;2022-08-19T00:46:35;29.40;50.80
37886;DHT22;23726;52.520;13.434;2022-08-19T00:49:06;29.40;50.90
37886;DHT22;23726;52.520;13.434;2022-08-19T00:51:34;29.40;50.80
37886;DHT22;23726;52.520;13.434;2022-08-19T00:54:00;29.40;50.90
37886;DHT22;23726;52.520;13.434;2022-08-19T00:56:27;29.30;50.80
37886;DHT22;23726;52.520;13.434;2022-08-19T00:58:55;29.30;50.80
37886;DHT22;23726;52.520;13.434;2022-08-19T01:01:21;29.40;50.90
37886;DHT22;23726;52.520;13.434;2022-08-19T01:03:47;29.40;50.90
37886;DHT22;23726;52.520;13.434;2022-08-19T01:06:12;29.40;50.90
37886;DHT22;23726;52.520;13.434;2022-08-19T01:08:38;29.40;50.80
37886;DHT22;23726;52.520;13.434;2022-08-19T01:11:04;29.40;50.90
37886;DHT22;23726;52.520;13.434;2022-08-19T01:13:32;29.30;52.70
37886;DHT22;23726;52.520;13.434;2022-08-19T01:16:03;29.10;53.60
37886;DHT22;23726;52.520;13.434;2022-08-19T01:18:30;29.00;54.30
37886;DHT22;23726;52.520;13.434;2022-08-19T01:21:02;28.90;54.70
37886;DHT22;23726;52.520;13.434;2022-08-19T01:23:28;28.80;55.50
37886;DHT22;23726;52.520;13.434;2022-08-19T01:26:12;28.70;55.70
37886;DHT22;23726;52.520;13.434;2022-08-19T01:28:40;28.70;55.90
37886;DHT22;23726;52.520;13.434;2022-08-19T01:31:07;28.60;55.90
37886;DHT22;23726;52.520;13.434;2022-08-19T01:33:35;28.50;56.30
37886;DHT22;23726;52.520;13.434;2022-08-19T01:36:07;28.50;56.40
37886;DHT22;23726;52.520;13.434;2022-08-19T01:38:37;28.50;56.60
37886;DHT22;23726;52.520;13.434;2022-08-19T01:41:03;28.40;56.80
37886;DHT22;23726;52.520;13.434;2022-08-19T01:43:28;28.40;57.00
37886;DHT22;23726;52.520;13.434;2022-08-19T01:45:54;28.40;57.10
37886;DHT22;23726;52.520;13.434;2022-08-19T01:48:20;28.40;57.40
37886;DHT22;23726;52.520;13.434;2022-08-19T01:50:45;28.30;57.60
37886;DHT22;23726;52.520;13.434;2022-08-19T01:53:12;28.30;57.50
37886;DHT22;23726;52.520;13.434;2022-08-19T01:55:40;28.30;57.50
37886;DHT22;23726;52.520;13.434;2022-08-19T01:58:14;28.30;57.80
37886;DHT22;23726;52.520;13.434;2022-08-19T02:00:44;28.20;57.50
37886;DHT22;23726;52.520;13.434;2022-08-19T02:03:10;28.20;57.80
37886;DHT22;23726;52.520;13.434;2022-08-19T02:05:37;28.20;58.00
37886;DHT22;23726;52.520;13.434;2022-08-19T02:08:03;28.10;58.00
37886;DHT22;23726;52.520;13.434;2022-08-19T02:10:28;28.00;58.10
37886;DHT22;23726;52.520;13.434;2022-08-19T02:12:54;28.00;58.20
37886;DHT22;23726;52.520;13.434;2022-08-19T02:15:20;27.90;58.10
37886;DHT22;23726;52.520;13.434;2022-08-19T02:17:46;27.80;58.50
37886;DHT22;23726;52.520;13.434;2022-08-19T02:20:13;27.90;58.50
37886;DHT22;23726;52.520;13.434;2022-08-19T02:22:40;27.90;58.30
37886;DHT22;23726;52.520;13.434;2022-08-19T02:25:10;27.90;58.00
37886;DHT22;23726;52.520;13.434;2022-08-19T02:27:36;27.90;57.90
37886;DHT22;23726;52.520;13.434;2022-08-19T02:30:03;27.90;58.10
37886;DHT22;23726;52.520;13.434;2022-08-19T02:32:29;27.90;58.10
37886;DHT22;23726;52.520;13.434;2022-08-19T02:34:56;27.70;58.30
37886;DHT22;23726;52.520;13.434;2022-08-19T02:37:21;27.70;58.40
37886;DHT22;23726;52.520;13.434;2022-08-19T02:40:07;27.70;58.50
37886;DHT22;23726;52.520;13.434;2022-08-19T02:42:32;27.70;58.60
37886;DHT22;23726;52.520;13.434;2022-08-19T02:44:59;27.70;58.90
37886;DHT22;23726;52.520;13.434;2022-08-19T02:47:25;27.70;58.70
37886;DHT22;23726;52.520;13.434;2022-08-19T02:49:51;27.70;58.40
37886;DHT22;23726;52.520;13.434;2022-08-19T02:52:16;27.70;58.40
37886;DHT22;23726;52.520;13.434;2022-08-19T02:54:43;27.70;58.40
37886;DHT22;23726;52.520;13.434;2022-08-19T02:57:09;27.70;58.50
37886;DHT22;23726;52.520;13.434;2022-08-19T02:59:35;27.70;58.80
37886;DHT22;23726;52.520;13.434;2022-08-19T03:02:00;27.70;58.50
37886;DHT22;23726;52.520;13.434;2022-08-19T03:04:26;27.70;58.40
37886;DHT22;23726;52.520;13.434;2022-08-19T03:06:51;27.70;58.30
37886;DHT22;23726;52.520;13.434;2022-08-19T03:09:19;27.70;58.20
37886;DHT22;23726;52.520;13.434;2022-08-19T03:11:45;27.70;58.20
37886;DHT22;23726;52.520;13.434;2022-08-19T03:14:11;27.70;58.20
37886;DHT22;23726;52.520;13.434;2022-08-19T03:16:51;27.70;58.30
37886;DHT22;23726;52.520;13.434;2022-08-19T03:19:18;27.70;58.10
37886;DHT22;23726;52.520;13.434;2022-08-19T03:21:45;27.70;58.10
37886;DHT22;23726;52.520;13.434;2022-08-19T03:24:12;27.70;58.30
37886;DHT22;23726;52.520;13.434;2022-08-19T03:26:42;27.70;58.00
37886;DHT22;23726;52.520;13.434;2022-08-19T03:29:08;27.70;58.00
37886;DHT22;23726;52.520;13.434;2022-08-19T03:31:36;27.70;58.60
37886;DHT22;23726;52.520;13.434;2022-08-19T03:34:02;27.60;58.30
37886;DHT22;23726;52.520;13.434;2022-08-19T03:36:27;27.60;58.10
37886;DHT22;23726;52.520;13.434;2022-08-19T03:38:57;27.60;58.20
37886;DHT22;23726;52.520;13.434;2022-08-19T03:41:30;27.60;58.20
37886;DHT22;23726;52.520;13.434;2022-08-19T03:43:57;27.60;58.40
37886;DHT22;23726;52.520;13.434;2022-08-19T03:46:25;27.50;58.50
37886;DHT22;23726;52.520;13.434;2022-08-19T03:48:54;27.60;58.40
37886;DHT22;23726;52.520;13.434;2022-08-19T03:51:26;27.60;58.30
37886;DHT22;23726;52.520;13.434;2022-08-19T03:53:53;27.60;58.30
37886;DHT22;23726;52.520;13.434;2022-08-19T03:56:19;27.60;58.40
37886;DHT22;23726;52.520;13.434;2022-08-19T03:58:45;27.50;58.30
37886;DHT22;23726;52.520;13.434;2022-08-19T04:01:14;27.50;58.30
37886;DHT22;23726;52.520;13.434;2022-08-19T04:03:41;27.50;58.50
37886;DHT22;23726;52.520;13.434;2022-08-19T04:06:15;27.50;58.30
37886;DHT22;23726;52.520;13.434;2022-08-19T04:08:42;27.60;58.20
37886;DHT22;23726;52.520;13.434;2022-08-19T04:11:13;27.50;58.30
37886;DHT22;23726;52.520;13.434;2022-08-19T04:13:39;27.50;58.40
37886;DHT22;23726;52.520;13.434;2022-08-19T04:16:05;27.50;58.50
37886;DHT22;23726;52.520;13.434;2022-08-19T04:18:32;27.50;58.30
37886;DHT22;23726;52.520;13.434;2022-08-19T04:20:59;27.50;58.30
37886;DHT22;23726;52.520;13.434;2022-08-19T04:23:25;27.50;58.40
37886;DHT22;23726;52.520;13.434;2022-08-19T04:25:54;27.40;58.60
37886;DHT22;23726;52.520;13.434;2022-08-19T04:28:21;27.40;58.60
37886;DHT22;23726;52.520;13.434;2022-08-19T04:30:50;27.40;58.80
37886;DHT22;23726;52.520;13.434;2022-08-19T04:33:20;27.40;58.70
37886;DHT22;23726;52.520;13.434;2022-08-19T04:35:47;27.40;58.60
37886;DHT22;23726;52.520;13.434;2022-08-19T04:38:15;27.40;58.60
37886;DHT22;23726;52.520;13.434;2022-08-19T04:40:47;27.50;58.40
37886;DHT22;23726;52.520;13.434;2022-08-19T04:43:35;27.40;58.60
37886;DHT22;23726;52.520;13.434;2022-08-19T04:46:08;27.40;58.80
37886;DHT22;23726;52.520;13.434;2022-08-19T04:48:35;27.40;58.70
37886;DHT22;23726;52.520;13.434;2022-08-19T04:51:06;27.40;58.90
37886;DHT22;23726;52.520;13.434;2022-08-19T04:53:35;27.40;58.80
37886;DHT22;23726;52.520;13.434;2022-08-19T04:56:06;27.30;58.90
37886;DHT22;23726;52.520;13.434;2022-08-19T04:58:33;27.30;59.10
37886;DHT22;23726;52.520;13.434;2022-08-19T05:00:59;27.30;59.00
37886;DHT22;23726;52.520;13.434;2022-08-19T05:03:26;27.30;59.00
37886;DHT22;23726;52.520;13.434;2022-08-19T05:05:52;27.30;59.00
37886;DHT22;23726;52.520;13.434;2022-08-19T05:08:20;27.30;59.20
37886;DHT22;23726;52.520;13.434;2022-08-19T05:10:48;27.30;59.20
37886;DHT22;23726;52.520;13.434;2022-08-19T05:13:15;27.30;59.10
37886;DHT22;23726;52.520;13.434;2022-08-19T05:15:43;27.30;59.20
37886;DHT22;23726;52.520;13.434;2022-08-19T05:18:09;27.30;59.40
37886;DHT22;23726;52.520;13.434;2022-08-19T05:20:53;27.30;59.20
37886;DHT22;23726;52.520;13.434;2022-08-19T05:23:38;27.30;59.40
37886;DHT22;23726;52.520;13.434;2022-08-19T05:26:04;27.30;59.60
37886;DHT22;23726;52.520;13.434;2022-08-19T05:28:30;27.30;59.30
37886;DHT22;23726;52.520;13.434;2022-08-19T05:30:55;27.30;59.40
37886;DHT22;23726;52.520;13.434;2022-08-19T05:33:22;27.30;59.60
37886;DHT22;23726;52.520;13.434;2022-08-19T05:35:48;27.20;59.60
37886;DHT22;23726;52.520;13.434;2022-08-19T05:38:18;27.20;59.70
37886;DHT22;23726;52.520;13.434;2022-08-19T05:40:43;27.30;59.80
37886;DHT22;23726;52.520;13.434;2022-08-19T05:43:12;27.30;59.40
37886;DHT22;23726;52.520;13.434;2022-08-19T05:45:41;27.30;59.50
37886;DHT22;23726;52.520;13.434;2022-08-19T05:48:07;27.30;59.60
37886;DHT22;23726;52.520;13.434;2022-08-19T05:50:40;27.30;59.50
37886;DHT22;23726;52.520;13.434;2022-08-19T05:53:06;27.30;59.50
37886;DHT22;23726;52.520;13.434;2022-08-19T05:55:34;27.40;59.50
37886;DHT22;23726;52.520;13.434;2022-08-19T05:57:59;27.30;59.60
37886;DHT22;23726;52.520;13.434;2022-08-19T06:00:27;27.30;59.50
37886;DHT22;23726;52.520;13.434;2022-08-19T06:02:53;27.30;59.70
37886;DHT22;23726;52.520;13.434;2022-08-19T06:05:21;27.30;59.60
37886;DHT22;23726;52.520;13.434;2022-08-19T06:07:47;27.30;59.60
37886;DHT22;23726;52.520;13.434;2022-08-19T06:10:13;27.40;60.40
37886;DHT22;23726;52.520;13.434;2022-08-19T06:12:38;27.30;59.80
37886;DHT22;23726;52.520;13.434;2022-08-19T06:15:10;27.30;59.80
37886;DHT22;23726;52.520;13.434;2022-08-19T06:17:38;27.40;59.80
37886;DHT22;23726;52.520;13.434;2022-08-19T06:20:06;27.30;59.90
37886;DHT22;23726;52.520;13.434;2022-08-19T06:22:35;27.30;59.90
37886;DHT22;23726;52.520;13.434;2022-08-19T06:25:03;27.30;59.80
37886;DHT22;23726;52.520;13.434;2022-08-19T06:27:29;27.40;60.00
37886;DHT22;23726;52.520;13.434;2022-08-19T06:29:57;27.30;59.80
37886;DHT22;23726;52.520;13.434;2022-08-19T06:32:22;27.30;59.80
37886;DHT22;23726;52.520;13.434;2022-08-19T06:34:48;27.40;59.90
37886;DHT22;23726;52.520;13.434;2022-08-19T06:37:14;27.40;60.00
37886;DHT22;23726;52.520;13.434;2022-08-19T06:39:42;27.50;59.60
37886;DHT22;23726;52.520;13.434;2022-08-19T06:42:09;27.60;59.20
37886;DHT22;23726;52.520;13.434;2022-08-19T06:44:39;27.70;59.10
37886;DHT22;23726;52.520;13.434;2022-08-19T06:47:07;27.70;58.60
37886;DHT22;23726;52.520;13.434;2022-08-19T06:49:35;27.80;58.50
37886;DHT22;23726;52.520;13.434;2022-08-19T06:52:01;27.80;58.20
37886;DHT22;23726;52.520;13.434;2022-08-19T06:54:28;27.90;58.10
37886;DHT22;23726;52.520;13.434;2022-08-19T06:56:56;27.90;57.80
37886;DHT22;23726;52.520;13.434;2022-08-19T06:59:24;28.00;57.70
37886;DHT22;23726;52.520;13.434;2022-08-19T07:01:55;28.00;57.60
37886;DHT22;23726;52.520;13.434;2022-08-19T07:04:28;28.00;57.30
37886;DHT22;23726;52.520;13.434;2022-08-19T07:07:07;28.10;57.50
37886;DHT22;23726;52.520;13.434;2022-08-19T07:09:34;28.10;57.40
37886;DHT22;23726;52.520;13.434;2022-08-19T07:12:03;28.10;57.40
37886;DHT22;23726;52.520;13.434;2022-08-19T07:14:29;28.10;57.20
37886;DHT22;23726;52.520;13.434;2022-08-19T07:16:56;28.10;57.00
37886;DHT22;23726;52.520;13.434;2022-08-19T07:19:24;28.20;57.10
37886;DHT22;23726;52.520;13.434;2022-08-19T07:21:52;28.20;57.10
37886;DHT22;23726;52.520;13.434;2022-08-19T07:24:20;28.20;57.00
37886;DHT22;23726;52.520;13.434;2022-08-19T07:26:47;28.20;56.80
37886;DHT22;23726;52.520;13.434;2022-08-19T07:29:12;28.20;56.80
37886;DHT22;23726;52.520;13.434;2022-08-19T07:31:38;28.30;56.80
37886;DHT22;23726;52.520;13.434;2022-08-19T07:34:06;28.30;56.60
37886;DHT22;23726;52.520;13.434;2022-08-19T07:36:34;28.30;56.70
37886;DHT22;23726;52.520;13.434;2022-08-19T07:39:06;28.30;56.70
37886;DHT22;23726;52.520;13.434;2022-08-19T07:41:34;28.30;56.60
37886;DHT22;23726;52.520;13.434;2022-08-19T07:44:00;28.30;56.40
37886;DHT22;23726;52.520;13.434;2022-08-19T07:46:33;28.30;56.70
37886;DHT22;23726;52.520;13.434;2022-08-19T07:48:59;28.40;56.60
37886;DHT22;23726;52.520;13.434;2022-08-19T07:51:26;28.40;56.60
37886;DHT22;23726;52.520;13.434;2022-08-19T07:53:52;28.40;56.70
37886;DHT22;23726;52.520;13.434;2022-08-19T07:56:20;28.40;56.80
37886;DHT22;23726;52.520;13.434;2022-08-19T07:58:49;28.40;56.80
37886;DHT22;23726;52.520;13.434;2022-08-19T08:01:18;28.40;56.60
37886;DHT22;23726;52.520;13.434;2022-08-19T08:03:44;28.40;57.10
37886;DHT22;23726;52.520;13.434;2022-08-19T08:06:29;28.40;57.00
37886;DHT22;23726;52.520;13.434;2022-08-19T08:09:18;28.40;57.00
37886;DHT22;23726;52.520;13.434;2022-08-19T08:12:00;28.40;57.10
37886;DHT22;23726;52.520;13.434;2022-08-19T08:14:29;28.40;56.90
37886;DHT22;23726;52.520;13.434;2022-08-19T08:16:56;28.40;57.00
37886;DHT22;23726;52.520;13.434;2022-08-19T08:19:23;28.40;57.20
37886;DHT22;23726;52.520;13.434;2022-08-19T08:21:50;28.40;56.50
37886;DHT22;23726;52.520;13.434;2022-08-19T08:24:16;28.40;56.60
37886;DHT22;23726;52.520;13.434;2022-08-19T08:26:42;28.40;56.80
37886;DHT22;23726;52.520;13.434;2022-08-19T08:29:09;28.50;56.90
37886;DHT22;23726;52.520;13.434;2022-08-19T08:31:36;28.50;56.00
37886;DHT22;23726;52.520;13.434;2022-08-19T08:34:02;28.50;57.20
37886;DHT22;23726;52.520;13.434;2022-08-19T08:36:28;28.50;56.80
37886;DHT22;23726;52.520;13.434;2022-08-19T08:38:53;28.50;56.50
37886;DHT22;23726;52.520;13.434;2022-08-19T08:44:22;28.50;57.00
37886;DHT22;23726;52.520;13.434;2022-08-19T08:46:57;28.50;56.40
37886;DHT22;23726;52.520;13.434;2022-08-19T08:54:36;28.50;56.20
37886;DHT22;23726;52.520;13.434;2022-08-19T08:57:06;28.50;56.40
37886;DHT22;23726;52.520;13.434;2022-08-19T08:59:36;28.50;56.40
37886;DHT22;23726;52.520;13.434;2022-08-19T09:02:04;28.50;55.90
37886;DHT22;23726;52.520;13.434;2022-08-19T09:04:30;28.50;56.30
37886;DHT22;23726;52.520;13.434;2022-08-19T09:12:10;28.50;56.30
37886;DHT22;23726;52.520;13.434;2022-08-19T09:14:59;28.50;56.40
37886;DHT22;23726;52.520;13.434;2022-08-19T09:17:29;28.50;56.70
37886;DHT22;23726;52.520;13.434;2022-08-19T09:20:21;28.50;56.80
37886;DHT22;23726;52.520;13.434;2022-08-19T09:22:47;28.50;56.50
37886;DHT22;23726;52.520;13.434;2022-08-19T09:25:17;28.50;56.00
37886;DHT22;23726;52.520;13.434;2022-08-19T09:27:44;28.50;56.50
37886;DHT22;23726;52.520;13.434;2022-08-19T09:30:20;28.50;56.10
37886;DHT22;23726;52.520;13.434;2022-08-19T09:32:47;28.60;56.00
37886;DHT22;23726;52.520;13.434;2022-08-19T09:35:14;28.60;56.30
37886;DHT22;23726;52.520;13.434;2022-08-19T09:37:40;28.60;56.90
37886;DHT22;23726;52.520;13.434;2022-08-19T09:40:07;28.50;56.60
37886;DHT22;23726;52.520;13.434;2022-08-19T09:42:33;28.60;56.40
37886;DHT22;23726;52.520;13.434;2022-08-19T09:44:59;28.60;56.40
37886;DHT22;23726;52.520;13.434;2022-08-19T09:47:25;28.50;55.60
37886;DHT22;23726;52.520;13.434;2022-08-19T09:49:50;28.60;56.00
37886;DHT22;23726;52.520;13.434;2022-08-19T09:52:16;28.60;56.90
37886;DHT22;23726;52.520;13.434;2022-08-19T09:54:41;28.60;56.80
37886;DHT22;23726;52.520;13.434;2022-08-19T09:57:07;28.60;55.80
37886;DHT22;23726;52.520;13.434;2022-08-19T09:59:33;28.60;55.90
37886;DHT22;23726;52.520;13.434;2022-08-19T10:01:59;28.60;56.00
37886;DHT22;23726;52.520;13.434;2022-08-19T10:04:25;28.60;56.00
37886;DHT22;23726;52.520;13.434;2022-08-19T10:07:10;28.60;56.80
37886;DHT22;23726;52.520;13.434;2022-08-19T10:09:36;28.60;56.70
37886;DHT22;23726;52.520;13.434;2022-08-19T10:12:03;28.60;57.00
37886;DHT22;23726;52.520;13.434;2022-08-19T10:14:30;28.60;56.70
37886;DHT22;23726;52.520;13.434;2022-08-19T10:16:55;28.60;56.50
37886;DHT22;23726;52.520;13.434;2022-08-19T10:19:21;28.60;56.90
37886;DHT22;23726;52.520;13.434;2022-08-19T10:21:47;28.60;56.60
37886;DHT22;23726;52.520;13.434;2022-08-19T10:24:12;28.60;56.40
37886;DHT22;23726;52.520;13.434;2022-08-19T10:26:39;28.70;56.10
37886;DHT22;23726;52.520;13.434;2022-08-19T10:29:07;28.70;56.00
37886;DHT22;23726;52.520;13.434;2022-08-19T10:31:34;28.70;56.30
37886;DHT22;23726;52.520;13.434;2022-08-19T10:34:00;28.70;56.30
37886;DHT22;23726;52.520;13.434;2022-08-19T10:36:32;28.70;57.50
37886;DHT22;23726;52.520;13.434;2022-08-19T10:39:03;28.70;58.40
37886;DHT22;23726;52.520;13.434;2022-08-19T10:41:31;28.70;56.90
37886;DHT22;23726;52.520;13.434;2022-08-19T10:44:00;28.70;57.20
37886;DHT22;23726;52.520;13.434;2022-08-19T10:46:27;28.70;58.50
37886;DHT22;23726;52.520;13.434;2022-08-19T10:48:54;28.70;57.70
37886;DHT22;23726;52.520;13.434;2022-08-19T10:51:20;28.70;56.90
37886;DHT22;23726;52.520;13.434;2022-08-19T10:54:05;28.70;56.90
37886;DHT22;23726;52.520;13.434;2022-08-19T10:56:32;28.70;56.50
37886;DHT22;23726;52.520;13.434;2022-08-19T10:59:26;28.70;57.10
37886;DHT22;23726;52.520;13.434;2022-08-19T11:01:54;28.70;57.10
37886;DHT22;23726;52.520;13.434;2022-08-19T11:04:23;28.70;56.90
37886;DHT22;23726;52.520;13.434;2022-08-19T11:06:49;28.70;57.50
37886;DHT22;23726;52.520;13.434;2022-08-19T11:09:16;28.70;57.00
37886;DHT22;23726;52.520;13.434;2022-08-19T11:11:42;28.70;57.60
37886;DHT22;23726;52.520;13.434;2022-08-19T11:14:10;28.70;56.90
37886;DHT22;23726;52.520;13.434;2022-08-19T11:16:37;28.70;57.20
37886;DHT22;23726;52.520;13.434;2022-08-19T11:19:05;28.70;57.10
37886;DHT22;23726;52.520;13.434;2022-08-19T11:21:35;28.70;57.20
37886;DHT22;23726;52.520;13.434;2022-08-19T11:24:04;28.70;57.30
37886;DHT22;23726;52.520;13.434;2022-08-19T11:26:32;28.70;56.40
37886;DHT22;23726;52.520;13.434;2022-08-19T11:28:59;28.70;57.00
37886;DHT22;23726;52.520;13.434;2022-08-19T11:31:28;28.70;56.90
37886;DHT22;23726;52.520;13.434;2022-08-19T11:33:57;28.70;57.00
37886;DHT22;23726;52.520;13.434;2022-08-19T11:36:25;28.70;56.70
37886;DHT22;23726;52.520;13.434;2022-08-19T11:38:51;28.70;56.50
37886;DHT22;23726;52.520;13.434;2022-08-19T11:41:19;28.70;57.60
37886;DHT22;23726;52.520;13.434;2022-08-19T11:43:44;28.60;58.20
37886;DHT22;23726;52.520;13.434;2022-08-19T11:46:13;28.60;58.40
37886;DHT22;23726;52.520;13.434;2022-08-19T11:48:39;28.50;58.40
37886;DHT22;23726;52.520;13.434;2022-08-19T11:51:14;28.40;58.30
37886;DHT22;23726;52.520;13.434;2022-08-19T11:53:41;28.40;58.60
37886;DHT22;23726;52.520;13.434;2022-08-19T11:56:08;28.30;58.80
37886;DHT22;23726;52.520;13.434;2022-08-19T11:58:34;28.20;58.90
37886;DHT22;23726;52.520;13.434;2022-08-19T12:01:00;28.20;58.90
37886;DHT22;23726;52.520;13.434;2022-08-19T12:03:27;28.20;58.90
37886;DHT22;23726;52.520;13.434;2022-08-19T12:05:53;28.20;58.90
37886;DHT22;23726;52.520;13.434;2022-08-19T12:08:19;28.20;58.80
37886;DHT22;23726;52.520;13.434;2022-08-19T12:10:45;28.20;58.90
37886;DHT22;23726;52.520;13.434;2022-08-19T12:13:13;28.10;59.00
37886;DHT22;23726;52.520;13.434;2022-08-19T12:15:44;28.10;59.10
37886;DHT22;23726;52.520;13.434;2022-08-19T12:18:10;28.10;59.10
37886;DHT22;23726;52.520;13.434;2022-08-19T12:20:38;28.10;59.00
37886;DHT22;23726;52.520;13.434;2022-08-19T12:23:06;28.00;59.10
37886;DHT22;23726;52.520;13.434;2022-08-19T12:25:32;28.00;59.00
37886;DHT22;23726;52.520;13.434;2022-08-19T12:28:00;28.00;59.10
37886;DHT22;23726;52.520;13.434;2022-08-19T12:30:26;28.00;59.00
37886;DHT22;23726;52.520;13.434;2022-08-19T12:32:52;28.10;59.20
37886;DHT22;23726;52.520;13.434;2022-08-19T12:35:18;28.10;59.20
37886;DHT22;23726;52.520;13.434;2022-08-19T12:37:46;28.00;59.30
37886;DHT22;23726;52.520;13.434;2022-08-19T12:40:12;28.00;59.30
37886;DHT22;23726;52.520;13.434;2022-08-19T12:42:39;28.10;59.20
37886;DHT22;23726;52.520;13.434;2022-08-19T12:45:11;28.00;59.30
37886;DHT22;23726;52.520;13.434;2022-08-19T12:47:38;28.00;59.10
37886;DHT22;23726;52.520;13.434;2022-08-19T12:50:05;28.00;59.20
37886;DHT22;23726;52.520;13.434;2022-08-19T12:52:34;28.00;59.10
37886;DHT22;23726;52.520;13.434;2022-08-19T12:55:02;28.00;59.70
37886;DHT22;23726;52.520;13.434;2022-08-19T12:57:28;28.00;59.10
37886;DHT22;23726;52.520;13.434;2022-08-19T12:59:54;28.00;59.00
37886;DHT22;23726;52.520;13.434;2022-08-19T13:02:20;28.00;59.00
37886;DHT22;23726;52.520;13.434;2022-08-19T13:04:49;28.00;59.00
37886;DHT22;23726;52.520;13.434;2022-08-19T13:07:14;28.00;58.70
37886;DHT22;23726;52.520;13.434;2022-08-19T13:09:40;28.00;58.70
37886;DHT22;23726;52.520;13.434;2022-08-19T13:12:08;28.00;58.60
37886;DHT22;23726;52.520;13.434;2022-08-19T13:14:40;28.00;58.60
37886;DHT22;23726;52.520;13.434;2022-08-19T13:17:06;28.00;58.70
37886;DHT22;23726;52.520;13.434;2022-08-19T13:19:36;28.00;58.80
37886;DHT22;23726;52.520;13.434;2022-08-19T13:22:01;28.00;58.90
37886;DHT22;23726;52.520;13.434;2022-08-19T13:24:27;28.00;58.80
37886;DHT22;23726;52.520;13.434;2022-08-19T13:26:53;28.00;58.80
37886;DHT22;23726;52.520;13.434;2022-08-19T13:29:18;28.00;58.80
37886;DHT22;23726;52.520;13.434;2022-08-19T13:32:02;28.00;58.80
37886;DHT22;23726;52.520;13.434;2022-08-19T13:35:00;28.10;58.50
37886;DHT22;23726;52.520;13.434;2022-08-19T13:37:26;28.10;58.00
37886;DHT22;23726;52.520;13.434;2022-08-19T13:40:09;28.20;58.00
37886;DHT22;23726;52.520;13.434;2022-08-19T13:42:41;28.20;57.90
37886;DHT22;23726;52.520;13.434;2022-08-19T13:45:07;28.20;57.80
37886;DHT22;23726;52.520;13.434;2022-08-19T13:47:34;28.30;57.70
37886;DHT22;23726;52.520;13.434;2022-08-19T13:50:02;28.30;57.50
37886;DHT22;23726;52.520;13.434;2022-08-19T13:52:28;28.30;57.70
37886;DHT22;23726;52.520;13.434;2022-08-19T13:54:53;28.30;57.30
37886;DHT22;23726;52.520;13.434;2022-08-19T13:57:19;28.30;57.20
37886;DHT22;23726;52.520;13.434;2022-08-19T13:59:45;28.40;57.30
37886;DHT22;23726;52.520;13.434;2022-08-19T14:02:10;28.30;57.60
37886;DHT22;23726;52.520;13.434;2022-08-19T14:04:36;28.40;57.40
37886;DHT22;23726;52.520;13.434;2022-08-19T14:07:03;28.40;57.00
37886;DHT22;23726;52.520;13.434;2022-08-19T14:09:29;28.40;56.90
37886;DHT22;23726;52.520;13.434;2022-08-19T14:11:55;28.40;57.20
37886;DHT22;23726;52.520;13.434;2022-08-19T14:14:20;28.40;56.70
37886;DHT22;23726;52.520;13.434;2022-08-19T14:16:47;28.40;56.80
37886;DHT22;23726;52.520;13.434;2022-08-19T14:19:12;28.40;56.70
37886;DHT22;23726;52.520;13.434;2022-08-19T14:21:38;28.40;56.70
37886;DHT22;23726;52.520;13.434;2022-08-19T14:24:04;28.40;56.90
37886;DHT22;23726;52.520;13.434;2022-08-19T14:26:30;28.50;57.10
37886;DHT22;23726;52.520;13.434;2022-08-19T14:28:56;28.50;56.40
37886;DHT22;23726;52.520;13.434;2022-08-19T14:31:23;28.50;56.80
37886;DHT22;23726;52.520;13.434;2022-08-19T14:33:49;28.50;56.90
37886;DHT22;23726;52.520;13.434;2022-08-19T14:36:16;28.40;56.50
37886;DHT22;23726;52.520;13.434;2022-08-19T14:38:42;28.50;56.30
37886;DHT22;23726;52.520;13.434;2022-08-19T14:41:16;28.50;56.60
37886;DHT22;23726;52.520;13.434;2022-08-19T14:43:44;28.50;56.80
37886;DHT22;23726;52.520;13.434;2022-08-19T14:46:14;28.50;56.60
37886;DHT22;23726;52.520;13.434;2022-08-19T14:48:41;28.50;55.90
37886;DHT22;23726;52.520;13.434;2022-08-19T14:51:06;28.50;56.20
37886;DHT22;23726;52.520;13.434;2022-08-19T14:53:32;28.50;56.40
37886;DHT22;23726;52.520;13.434;2022-08-19T14:55:59;28.50;56.40
37886;DHT22;23726;52.520;13.434;2022-08-19T14:58:26;28.50;56.50
37886;DHT22;23726;52.520;13.434;2022-08-19T15:00:52;28.50;56.60
37886;DHT22;23726;52.520;13.434;2022-08-19T15:03:17;28.50;56.70
37886;DHT22;23726;52.520;13.434;2022-08-19T15:05:43;28.50;56.70
37886;DHT22;23726;52.520;13.434;2022-08-19T15:08:09;28.40;56.70
37886;DHT22;23726;52.520;13.434;2022-08-19T15:10:37;28.50;56.70
37886;DHT22;23726;52.520;13.434;2022-08-19T15:13:03;28.50;56.60
37886;DHT22;23726;52.520;13.434;2022-08-19T15:15:28;28.50;56.70
37886;DHT22;23726;52.520;13.434;2022-08-19T15:17:54;28.50;56.60
37886;DHT22;23726;52.520;13.434;2022-08-19T15:20:20;28.50;57.00
37886;DHT22;23726;52.520;13.434;2022-08-19T15:22:47;28.50;56.20
37886;DHT22;23726;52.520;13.434;2022-08-19T15:25:15;28.50;56.60
37886;DHT22;23726;52.520;13.434;2022-08-19T15:27:41;28.50;56.50
37886;DHT22;23726;52.520;13.434;2022-08-19T15:30:09;28.50;56.20
37886;DHT22;23726;52.520;13.434;2022-08-19T15:32:36;28.50;56.50
37886;DHT22;23726;52.520;13.434;2022-08-19T15:35:03;28.50;56.40